Time;durP1;ratioP1;P1;durP2;ratioP2;P2;SDS_P1;SDS_P2;PMS_P1;PMS_P2;Temp;Humidity;BMP_temperature;BMP_pressure;BME280_temperature;BME280_humidity;BME280_pressure;Samples;Min_cycle;Max_cycle;Signal;HPM_P1;HPM_P2
2021/06/28 00:01:01;;;;;;;16.03;15.23;;;;;;;;;;4997191;28;20949;-70
2021/06/28 00:03:28;;;;;;;16.33;15.37;;;;;;;;;;4996681;28;20489;-70
2021/06/28 00:05:55;;;;;;;16.80;15.67;;;;;;;;;;4997205;28;20457;-69
2021/06/28 00:08:22;;;;;;;15.90;15.00;;;;;;;;;;4997303;28;20534;-70
2021/06/28 00:10:49;;;;;;;16.43;15.53;;;;;;;;;;4996448;28;20546;-69
2021/06/28 00:13:17;;;;;;;17.13;16.07;;;;;;;;;;4997717;28;20470;-70
2021/06/28 00:15:44;;;;;;;16.70;15.80;;;;;;;;;;4997112;28;20446;-70
2021/06/28 00:18:13;;;;;;;16.30;15.40;;;;;;;;;;4996639;28;20457;-70
2021/06/28 00:20:40;;;;;;;15.83;14.93;;;;;;;;;;4996441;28;20446;-70
2021/06/28 00:23:08;;;;;;;16.07;15.17;;;;;;;;;;4997863;28;20490;-68
2021/06/28 00:25:35;;;;;;;16.67;15.67;;;;;;;;;;5007976;28;20460;-69
2021/06/28 00:28:02;;;;;;;17.63;16.60;;;;;;;;;;5006964;28;20505;-70
2021/06/28 00:30:30;;;;;;;16.70;15.80;;;;;;;;;;5004313;28;20446;-70
2021/06/28 00:32:58;;;;;;;17.60;16.50;;;;;;;;;;4995900;28;20470;-70
2021/06/28 00:35:26;;;;;;;18.03;16.83;;;;;;;;;;4995855;28;20448;-70
2021/06/28 00:37:53;;;;;;;17.20;16.20;;;;;;;;;;4995234;28;20446;-70
2021/06/28 00:40:21;;;;;;;17.83;16.83;;;;;;;;;;4995291;28;20486;-70
2021/06/28 00:42:48;;;;;;;18.13;17.10;;;;;;;;;;4995445;28;20512;-70
2021/06/28 00:45:16;;;;;;;17.77;16.77;;;;;;;;;;4995706;28;20888;-71
2021/06/28 00:47:44;;;;;;;17.67;16.67;;;;;;;;;;4995154;28;20456;-70
2021/06/28 00:50:11;;;;;;;18.67;17.57;;;;;;;;;;4994988;28;20456;-69
2021/06/28 00:52:40;;;;;;;19.03;17.83;;;;;;;;;;4994872;28;20478;-69
2021/06/28 00:55:09;;;;;;;17.77;16.67;;;;;;;;;;4993910;28;20796;-70
2021/06/28 00:57:36;;;;;;;18.00;16.90;;;;;;;;;;4994949;28;20895;-69
2021/06/28 01:00:05;;;;;;;17.73;16.63;;;;;;;;;;4995088;28;20481;-71
2021/06/28 01:02:33;;;;;;;18.53;17.43;;;;;;;;;;4994656;28;20508;-70
2021/06/28 01:05:00;;;;;;;18.30;17.23;;;;;;;;;;4994713;28;20450;-71
2021/06/28 01:07:29;;;;;;;18.27;17.17;;;;;;;;;;4994677;28;20465;-70
2021/06/28 01:09:58;;;;;;;19.27;18.07;;;;;;;;;;4994935;28;20447;-70
2021/06/28 01:12:25;;;;;;;18.87;17.73;;;;;;;;;;4994795;28;20478;-69
2021/06/28 01:14:52;;;;;;;19.33;18.07;;;;;;;;;;4994925;28;20456;-70
2021/06/28 01:17:19;;;;;;;18.13;17.03;;;;;;;;;;4994681;28;20453;-70
2021/06/28 01:19:51;;;;;;;18.97;17.77;;;;;;;;;;4994144;28;20482;-71
2021/06/28 01:22:22;;;;;;;18.80;17.70;;;;;;;;;;4994645;28;20473;-71
2021/06/28 01:24:51;;;;;;;18.80;17.70;;;;;;;;;;4994376;28;20454;-70
2021/06/28 01:27:19;;;;;;;18.97;17.87;;;;;;;;;;4994531;28;20446;-70
2021/06/28 01:29:46;;;;;;;18.20;17.10;;;;;;;;;;4994014;28;20905;-70
2021/06/28 01:32:13;;;;;;;18.40;17.23;;;;;;;;;;4993878;28;21019;-70
2021/06/28 01:34:40;;;;;;;19.17;18.07;;;;;;;;;;4994601;28;20454;-70
2021/06/28 01:37:22;;;;;;;18.43;17.40;;;;;;;;;;4994007;28;20837;-69
2021/06/28 01:39:52;;;;;;;19.37;18.27;;;;;;;;;;4992914;28;20580;-69
2021/06/28 01:42:20;;;;;;;17.57;16.57;;;;;;;;;;4993790;28;20471;-70
2021/06/28 01:44:47;;;;;;;19.30;18.10;;;;;;;;;;4994257;28;20450;-70
2021/06/28 01:47:14;;;;;;;20.90;19.40;;;;;;;;;;4994026;28;20454;-70
2021/06/28 01:49:41;;;;;;;20.07;18.87;;;;;;;;;;4994133;28;20446;-70
2021/06/28 01:52:09;;;;;;;20.27;19.00;;;;;;;;;;4993600;28;20481;-70
2021/06/28 01:54:36;;;;;;;21.27;19.87;;;;;;;;;;4993868;28;20454;-70
2021/06/28 01:57:05;;;;;;;19.60;18.40;;;;;;;;;;4994152;28;20481;-70
2021/06/28 01:59:33;;;;;;;20.60;19.30;;;;;;;;;;4993877;28;20497;-70
2021/06/28 02:02:01;;;;;;;21.30;19.80;;;;;;;;;;5033881;23;20488;-70
2021/06/28 02:04:28;;;;;;;22.30;21.00;;;;;;;;;;4996384;28;20488;-68
2021/06/28 02:06:56;;;;;;;22.30;20.80;;;;;;;;;;4993129;28;20533;-70
2021/06/28 02:09:24;;;;;;;22.23;20.93;;;;;;;;;;4993573;28;20438;-70
2021/06/28 02:11:52;;;;;;;22.93;21.47;;;;;;;;;;4993097;28;20448;-70
2021/06/28 02:14:21;;;;;;;22.20;20.70;;;;;;;;;;4973610;28;20455;-70
2021/06/28 02:16:49;;;;;;;23.03;21.57;;;;;;;;;;4974223;28;20711;-70
2021/06/28 02:19:16;;;;;;;21.27;19.93;;;;;;;;;;4973945;28;20483;-70
2021/06/28 02:21:44;;;;;;;21.03;19.73;;;;;;;;;;4974001;28;20451;-70
2021/06/28 02:24:11;;;;;;;20.90;19.60;;;;;;;;;;4974098;28;20478;-70
2021/06/28 02:26:39;;;;;;;22.60;21.13;;;;;;;;;;4973698;28;20570;-70
2021/06/28 02:29:06;;;;;;;22.50;21.10;;;;;;;;;;4973940;28;20456;-70
2021/06/28 02:31:35;;;;;;;22.60;21.17;;;;;;;;;;4973586;28;20835;-71
2021/06/28 02:34:02;;;;;;;22.33;20.63;;;;;;;;;;4973591;28;20475;-70
2021/06/28 02:36:30;;;;;;;21.93;20.47;;;;;;;;;;4973653;28;20455;-70
2021/06/28 02:38:57;;;;;;;23.00;21.60;;;;;;;;;;4973211;28;20946;-69
2021/06/28 02:41:24;;;;;;;23.13;21.63;;;;;;;;;;4973700;28;20451;-70
2021/06/28 02:43:52;;;;;;;24.17;22.37;;;;;;;;;;4973615;28;20463;-70
2021/06/28 02:46:19;;;;;;;23.17;21.80;;;;;;;;;;4973228;28;20453;-69
2021/06/28 02:48:48;;;;;;;22.63;21.07;;;;;;;;;;4973704;28;20447;-71
2021/06/28 02:51:16;;;;;;;23.03;21.53;;;;;;;;;;4973036;28;20454;-68
2021/06/28 02:53:43;;;;;;;22.60;21.10;;;;;;;;;;4973100;28;20918;-67
2021/06/28 02:56:14;;;;;;;21.97;20.50;;;;;;;;;;4973629;28;20458;-70
2021/06/28 02:58:41;;;;;;;23.23;21.70;;;;;;;;;;4973576;28;20442;-68
2021/06/28 03:01:08;;;;;;;22.10;20.70;;;;;;;;;;4972952;28;20841;-71
2021/06/28 03:03:36;;;;;;;23.50;21.90;;;;;;;;;;4973072;28;20486;-70
2021/06/28 03:06:04;;;;;;;22.23;20.93;;;;;;;;;;4972810;28;20454;-71
2021/06/28 03:08:32;;;;;;;22.93;21.47;;;;;;;;;;4973261;28;20451;-70
2021/06/28 03:11:01;;;;;;;22.83;21.37;;;;;;;;;;4972868;28;20827;-70
2021/06/28 03:13:28;;;;;;;23.17;21.77;;;;;;;;;;4972841;28;20970;-70
2021/06/28 03:15:55;;;;;;;23.50;21.80;;;;;;;;;;4973051;28;20455;-70
2021/06/28 03:18:23;;;;;;;22.00;20.60;;;;;;;;;;4972560;28;20451;-71
2021/06/28 03:20:50;;;;;;;21.10;19.80;;;;;;;;;;4972729;28;21015;-70
2021/06/28 03:23:18;;;;;;;21.63;20.23;;;;;;;;;;4973358;28;20471;-70
2021/06/28 03:25:46;;;;;;;22.73;21.23;;;;;;;;;;4973895;28;20451;-68
2021/06/28 03:28:13;;;;;;;22.27;20.77;;;;;;;;;;4975946;28;20920;-70
2021/06/28 03:30:40;;;;;;;21.83;20.53;;;;;;;;;;4979374;28;20443;-68
2021/06/28 03:33:07;;;;;;;21.80;20.50;;;;;;;;;;4984700;28;20475;-70
2021/06/28 03:35:34;;;;;;;22.90;21.30;;;;;;;;;;4985908;28;20451;-70
2021/06/28 03:38:02;;;;;;;22.83;21.33;;;;;;;;;;4977578;28;20538;-70
2021/06/28 03:40:32;;;;;;;24.07;22.57;;;;;;;;;;4972968;28;20490;-70
2021/06/28 03:43:00;;;;;;;23.57;22.07;;;;;;;;;;4972765;28;20509;-70
2021/06/28 03:45:27;;;;;;;22.93;21.43;;;;;;;;;;4972850;28;20447;-70
2021/06/28 03:47:54;;;;;;;23.33;21.97;;;;;;;;;;4972599;28;20970;-70
2021/06/28 03:50:21;;;;;;;23.10;21.70;;;;;;;;;;4972857;28;20444;-70
2021/06/28 03:52:48;;;;;;;23.87;22.43;;;;;;;;;;4972898;28;20478;-70
2021/06/28 03:55:16;;;;;;;23.90;22.30;;;;;;;;;;4972673;28;20451;-69
2021/06/28 03:57:44;;;;;;;23.03;21.53;;;;;;;;;;4972880;28;20825;-70
2021/06/28 04:00:13;;;;;;;22.10;20.60;;;;;;;;;;4972499;28;20485;-70
2021/06/28 04:02:42;;;;;;;21.40;20.10;;;;;;;;;;4972199;28;20493;-70
2021/06/28 04:05:10;;;;;;;24.20;22.70;;;;;;;;;;4972820;28;20442;-70
2021/06/28 04:07:37;;;;;;;23.57;22.07;;;;;;;;;;4972697;28;20451;-70
2021/06/28 04:10:04;;;;;;;23.73;22.03;;;;;;;;;;4972760;28;20447;-70
2021/06/28 04:12:31;;;;;;;22.93;21.63;;;;;;;;;;4972388;28;20559;-70
2021/06/28 04:15:00;;;;;;;22.97;21.67;;;;;;;;;;4972443;28;20646;-70
2021/06/28 04:17:28;;;;;;;23.10;21.80;;;;;;;;;;4972806;28;20861;-70
2021/06/28 04:19:55;;;;;;;23.80;22.40;;;;;;;;;;4972451;28;20485;-68
2021/06/28 04:22:22;;;;;;;23.33;21.90;;;;;;;;;;4972209;28;20471;-70
2021/06/28 04:24:49;;;;;;;22.20;20.80;;;;;;;;;;4972637;28;20451;-68
2021/06/28 04:27:16;;;;;;;23.00;21.50;;;;;;;;;;4972423;28;20814;-70
2021/06/28 04:29:43;;;;;;;22.20;20.90;;;;;;;;;;4975009;28;20451;-68
2021/06/28 04:32:12;;;;;;;22.27;20.97;;;;;;;;;;4975745;28;20448;-70
2021/06/28 04:34:44;;;;;;;24.50;22.80;;;;;;;;;;4976269;28;20457;-70
2021/06/28 04:37:11;;;;;;;22.67;21.27;;;;;;;;;;4975887;28;20448;-70
2021/06/28 04:39:38;;;;;;;21.80;20.53;;;;;;;;;;4976154;28;20447;-69
2021/06/28 04:42:06;;;;;;;22.80;21.30;;;;;;;;;;4975093;28;20451;-69
2021/06/28 04:44:33;;;;;;;23.80;22.27;;;;;;;;;;4975879;28;20459;-70
2021/06/28 04:47:00;;;;;;;23.53;21.90;;;;;;;;;;4975629;28;20965;-70
2021/06/28 04:49:29;;;;;;;21.80;20.50;;;;;;;;;;4975507;28;20928;-70
2021/06/28 04:51:56;;;;;;;23.23;21.53;;;;;;;;;;4975154;28;20448;-70
2021/06/28 04:54:23;;;;;;;21.10;19.90;;;;;;;;;;4975498;28;20458;-70
2021/06/28 04:56:50;;;;;;;22.13;20.83;;;;;;;;;;4975341;28;20823;-70
2021/06/28 04:59:17;;;;;;;22.33;20.93;;;;;;;;;;4975950;28;20454;-70
2021/06/28 05:01:44;;;;;;;21.97;20.67;;;;;;;;;;4975560;28;20486;-70
2021/06/28 05:04:12;;;;;;;22.20;20.90;;;;;;;;;;4975162;28;20718;-70
2021/06/28 05:06:40;;;;;;;19.77;18.57;;;;;;;;;;4975526;28;20820;-70
2021/06/28 05:09:08;;;;;;;20.00;18.80;;;;;;;;;;4975429;28;20470;-70
2021/06/28 05:11:36;;;;;;;21.10;19.90;;;;;;;;;;4975393;28;20451;-70
2021/06/28 05:14:04;;;;;;;21.10;19.90;;;;;;;;;;4975021;28;20467;-70
2021/06/28 05:16:31;;;;;;;21.60;20.40;;;;;;;;;;4975216;28;20935;-70
2021/06/28 05:18:58;;;;;;;21.20;19.90;;;;;;;;;;4975481;28;20451;-70
2021/06/28 05:21:25;;;;;;;19.93;18.83;;;;;;;;;;4974747;28;20494;-70
2021/06/28 05:23:54;;;;;;;19.33;18.23;;;;;;;;;;4975281;28;20472;-69
2021/06/28 05:26:21;;;;;;;19.03;17.93;;;;;;;;;;4975272;28;20455;-70
2021/06/28 05:28:48;;;;;;;20.13;18.93;;;;;;;;;;4975462;28;20451;-70
2021/06/28 05:31:15;;;;;;;18.97;17.77;;;;;;;;;;4975262;28;20443;-69
2021/06/28 05:33:42;;;;;;;18.10;17.10;;;;;;;;;;4974937;28;20483;-70
2021/06/28 05:36:10;;;;;;;18.57;17.37;;;;;;;;;;4974781;28;20473;-70
2021/06/28 05:38:37;;;;;;;21.00;19.80;;;;;;;;;;4975338;28;20447;-69
2021/06/28 05:41:05;;;;;;;16.40;15.50;;;;;;;;;;4974068;28;20491;-70
2021/06/28 05:43:32;;;;;;;17.17;16.07;;;;;;;;;;4974957;28;20467;-70
2021/06/28 05:45:59;;;;;;;16.40;15.40;;;;;;;;;;4974973;28;20462;-70
2021/06/28 05:48:26;;;;;;;16.00;15.00;;;;;;;;;;4975081;28;20454;-70
2021/06/28 05:50:54;;;;;;;15.70;14.90;;;;;;;;;;4975244;28;20961;-70
2021/06/28 05:53:21;;;;;;;14.63;13.73;;;;;;;;;;4975262;28;20562;-71
2021/06/28 05:55:48;;;;;;;14.50;13.60;;;;;;;;;;4975153;28;20451;-70
2021/06/28 05:58:17;;;;;;;15.30;14.33;;;;;;;;;;4974928;28;20464;-69
2021/06/28 06:00:44;;;;;;;12.80;11.97;;;;;;;;;;4975043;28;20534;-70
2021/06/28 06:03:11;;;;;;;11.93;11.13;;;;;;;;;;4974794;28;20485;-69
2021/06/28 06:05:38;;;;;;;12.83;11.77;;;;;;;;;;4975036;28;20993;-70
2021/06/28 06:08:06;;;;;;;12.20;11.20;;;;;;;;;;4974682;28;20960;-70
2021/06/28 06:10:33;;;;;;;10.53;9.93;;;;;;;;;;4974558;28;20546;-70
2021/06/28 06:13:00;;;;;;;10.90;10.20;;;;;;;;;;4974633;28;20490;-70
2021/06/28 06:15:29;;;;;;;10.77;10.07;;;;;;;;;;4975320;28;20635;-70
2021/06/28 06:17:56;;;;;;;9.70;9.00;;;;;;;;;;4974727;28;20451;-70
2021/06/28 06:20:23;;;;;;;11.07;10.17;;;;;;;;;;4974985;28;20506;-71
2021/06/28 06:22:52;;;;;;;11.40;10.70;;;;;;;;;;4974242;28;21049;-70
2021/06/28 06:25:19;;;;;;;9.80;9.10;;;;;;;;;;4974767;28;20462;-70
2021/06/28 06:27:46;;;;;;;9.67;9.07;;;;;;;;;;4974606;28;20451;-70
2021/06/28 06:30:15;;;;;;;8.97;8.27;;;;;;;;;;4974356;28;20462;-70
2021/06/28 06:32:44;;;;;;;8.53;7.83;;;;;;;;;;4974434;28;20478;-70
2021/06/28 06:35:12;;;;;;;8.20;7.60;;;;;;;;;;4975053;28;20451;-70
2021/06/28 06:37:40;;;;;;;7.73;7.13;;;;;;;;;;4974823;28;20510;-71
2021/06/28 06:40:07;;;;;;;7.73;7.23;;;;;;;;;;4974381;28;20451;-70
2021/06/28 06:42:35;;;;;;;7.87;7.27;;;;;;;;;;4974521;28;20825;-70
2021/06/28 06:45:02;;;;;;;7.20;6.67;;;;;;;;;;4974654;28;20448;-70
2021/06/28 06:47:29;;;;;;;7.50;6.97;;;;;;;;;;4974775;28;20454;-70
2021/06/28 06:49:57;;;;;;;6.80;6.30;;;;;;;;;;4974828;28;20834;-68
2021/06/28 06:52:25;;;;;;;6.53;5.93;;;;;;;;;;4974359;28;20493;-69
2021/06/28 06:54:52;;;;;;;6.40;5.90;;;;;;;;;;4974925;28;20451;-70
2021/06/28 06:57:19;;;;;;;5.83;5.43;;;;;;;;;;4974316;28;20447;-69
2021/06/28 06:59:46;;;;;;;5.37;4.97;;;;;;;;;;4974540;28;20542;-69
2021/06/28 07:02:13;;;;;;;5.80;5.20;;;;;;;;;;4973961;28;20835;-70
2021/06/28 07:04:41;;;;;;;6.50;5.80;;;;;;;;;;4974501;28;20451;-70
2021/06/28 07:07:11;;;;;;;6.23;5.73;;;;;;;;;;4974199;28;20474;-70
2021/06/28 07:09:38;;;;;;;5.67;5.17;;;;;;;;;;4974419;28;20492;-70
2021/06/28 07:12:06;;;;;;;6.60;5.87;;;;;;;;;;4974258;28;20468;-70
2021/06/28 07:14:33;;;;;;;5.23;4.80;;;;;;;;;;4974434;28;20471;-67
2021/06/28 07:17:00;;;;;;;5.70;5.17;;;;;;;;;;4973871;28;20943;-70
2021/06/28 07:19:27;;;;;;;5.27;4.77;;;;;;;;;;4974168;28;20449;-69
2021/06/28 07:21:54;;;;;;;4.70;4.30;;;;;;;;;;4973856;28;20483;-70
2021/06/28 07:24:22;;;;;;;5.10;4.70;;;;;;;;;;4973765;28;20455;-70
2021/06/28 07:26:50;;;;;;;5.00;4.50;;;;;;;;;;4974104;28;20846;-70
2021/06/28 07:29:17;;;;;;;6.23;4.37;;;;;;;;;;4974209;28;20458;-66
2021/06/28 07:31:45;;;;;;;5.20;4.80;;;;;;;;;;4973700;28;20451;-70
2021/06/28 07:34:12;;;;;;;5.50;5.10;;;;;;;;;;4974052;28;20477;-70
2021/06/28 07:36:39;;;;;;;4.77;4.37;;;;;;;;;;4973962;28;20447;-70
2021/06/28 07:39:06;;;;;;;4.70;4.40;;;;;;;;;;4974194;28;20461;-70
2021/06/28 07:41:35;;;;;;;6.40;4.97;;;;;;;;;;4973708;28;20572;-67
2021/06/28 07:44:05;;;;;;;5.07;4.63;;;;;;;;;;4973901;28;20985;-70
2021/06/28 07:46:32;;;;;;;5.10;4.50;;;;;;;;;;4973538;28;20466;-70
2021/06/28 07:48:59;;;;;;;5.30;4.90;;;;;;;;;;4974250;28;20450;-70
2021/06/28 07:51:27;;;;;;;5.30;4.90;;;;;;;;;;4973605;28;20443;-70
2021/06/28 07:53:54;;;;;;;5.23;4.73;;;;;;;;;;4973947;28;20471;-67
2021/06/28 07:56:21;;;;;;;5.53;5.13;;;;;;;;;;4973438;28;20574;-70
2021/06/28 07:58:50;;;;;;;4.70;4.33;;;;;;;;;;4973735;28;20452;-68
2021/06/28 08:01:18;;;;;;;6.63;4.70;;;;;;;;;;4973806;28;20483;-71
2021/06/28 08:03:46;;;;;;;5.43;5.03;;;;;;;;;;4975058;28;20494;-70
2021/06/28 08:06:13;;;;;;;4.80;4.40;;;;;;;;;;4977074;28;20459;-70
2021/06/28 08:08:40;;;;;;;5.17;4.60;;;;;;;;;;4977803;28;20448;-70
2021/06/28 08:11:09;;;;;;;5.20;4.80;;;;;;;;;;4977426;28;20824;-70
2021/06/28 08:13:36;;;;;;;4.20;3.80;;;;;;;;;;4977423;28;20530;-70
2021/06/28 08:16:05;;;;;;;4.57;4.17;;;;;;;;;;4977237;28;20455;-70
2021/06/28 08:18:34;;;;;;;4.20;3.80;;;;;;;;;;4977309;28;20459;-70
2021/06/28 08:21:01;;;;;;;4.90;4.17;;;;;;;;;;4977373;28;20538;-70
2021/06/28 08:23:28;;;;;;;4.13;3.83;;;;;;;;;;4977256;28;20475;-70
2021/06/28 08:25:56;;;;;;;4.63;4.20;;;;;;;;;;4976878;28;20465;-70
2021/06/28 08:28:23;;;;;;;3.77;3.40;;;;;;;;;;4976921;28;20450;-68
2021/06/28 08:30:50;;;;;;;3.90;3.60;;;;;;;;;;4976751;28;20818;-70
2021/06/28 08:33:18;;;;;;;4.60;4.30;;;;;;;;;;4976721;28;20548;-70
2021/06/28 08:35:46;;;;;;;4.10;3.80;;;;;;;;;;4977202;28;20546;-71
2021/06/28 08:38:13;;;;;;;3.63;3.33;;;;;;;;;;4976623;28;20530;-69
2021/06/28 08:40:40;;;;;;;3.80;3.43;;;;;;;;;;4976948;28;20455;-70
2021/06/28 08:43:08;;;;;;;5.20;3.90;;;;;;;;;;4977002;28;20853;-70
2021/06/28 08:45:37;;;;;;;3.57;3.27;;;;;;;;;;4976991;28;20566;-70
2021/06/28 08:48:05;;;;;;;3.50;3.20;;;;;;;;;;4976955;28;20821;-70
2021/06/28 08:50:33;;;;;;;4.10;3.70;;;;;;;;;;4976636;28;20827;-70
2021/06/28 08:53:01;;;;;;;6.33;3.57;;;;;;;;;;4977042;28;20471;-70
2021/06/28 08:55:28;;;;;;;4.20;3.87;;;;;;;;;;4976828;28;20538;-70
2021/06/28 08:57:55;;;;;;;4.10;3.80;;;;;;;;;;4976719;28;20451;-67
2021/06/28 09:00:23;;;;;;;4.03;3.67;;;;;;;;;;4976162;28;20840;-71
2021/06/28 09:02:54;;;;;;;5.07;3.47;;;;;;;;;;4975973;28;20530;-70
2021/06/28 09:05:22;;;;;;;3.70;3.40;;;;;;;;;;4975802;28;20451;-70
2021/06/28 09:07:50;;;;;;;4.07;3.63;;;;;;;;;;4975341;28;20454;-71
2021/06/28 09:10:32;;;;;;;4.23;3.70;;;;;;;;;;4976446;28;20453;-69
2021/06/28 09:13:00;;;;;;;5.80;3.47;;;;;;;;;;4976282;28;20510;-69
2021/06/28 09:15:33;;;;;;;3.47;3.23;;;;;;;;;;4975317;28;20448;-70
2021/06/28 09:18:14;;;;;;;5.13;3.20;;;;;;;;;;4976193;28;20459;-70
2021/06/28 09:20:42;;;;;;;4.00;3.43;;;;;;;;;;4975813;28;20454;-69
2021/06/28 09:23:18;;;;;;;4.10;3.10;;;;;;;;;;4974833;28;20714;-70
2021/06/28 09:25:45;;;;;;;3.63;3.37;;;;;;;;;;4975374;28;20546;-70
2021/06/28 09:28:12;;;;;;;4.60;3.23;;;;;;;;;;4975327;28;20537;-70
2021/06/28 09:30:46;;;;;;;3.47;3.17;;;;;;;;;;4974754;28;20501;-70
2021/06/28 09:33:14;;;;;;;3.30;3.00;;;;;;;;;;4974958;28;20526;-70
2021/06/28 09:35:42;;;;;;;3.60;3.30;;;;;;;;;;4975013;28;20487;-71
2021/06/28 09:38:10;;;;;;;3.63;3.10;;;;;;;;;;4974705;28;20451;-70
2021/06/28 09:40:38;;;;;;;3.80;3.50;;;;;;;;;;4975312;28;20448;-71
2021/06/28 09:43:22;;;;;;;5.30;4.17;;;;;;;;;;4974789;28;20487;-71
2021/06/28 09:45:54;;;;;;;4.00;3.70;;;;;;;;;;4974694;28;20459;-71
2021/06/28 09:48:28;;;;;;;3.60;3.30;;;;;;;;;;4974851;28;20750;-71
2021/06/28 09:51:14;;;;;;;3.90;3.50;;;;;;;;;;4974337;28;20811;-71
2021/06/28 09:53:41;;;;;;;3.50;3.20;;;;;;;;;;4974410;28;20467;-71
2021/06/28 09:56:28;;;;;;;3.40;3.10;;;;;;;;;;4974406;28;20447;-71
2021/06/28 09:58:55;;;;;;;3.30;2.83;;;;;;;;;;4974726;28;20439;-70
2021/06/28 10:01:25;;;;;;;3.67;3.10;;;;;;;;;;4974064;28;20851;-71
2021/06/28 10:03:54;;;;;;;3.90;3.60;;;;;;;;;;4973959;28;20524;-71
2021/06/28 10:06:28;;;;;;;3.20;3.00;;;;;;;;;;4974435;28;20454;-70
2021/06/28 10:09:03;;;;;;;3.40;3.10;;;;;;;;;;4974633;28;20454;-70
2021/06/28 10:11:31;;;;;;;3.20;2.90;;;;;;;;;;4974239;28;20451;-70
2021/06/28 10:13:59;;;;;;;3.17;2.87;;;;;;;;;;4973929;28;20467;-71
2021/06/28 10:16:27;;;;;;;5.57;3.00;;;;;;;;;;4974254;28;20451;-71
2021/06/28 10:18:55;;;;;;;2.80;2.60;;;;;;;;;;4973713;28;20943;-70
2021/06/28 10:21:22;;;;;;;3.00;2.80;;;;;;;;;;4973588;28;20455;-71
2021/06/28 10:23:50;;;;;;;4.00;3.20;;;;;;;;;;4974088;28;20835;-70
2021/06/28 10:26:17;;;;;;;5.00;3.60;;;;;;;;;;4973360;28;20827;-71
2021/06/28 10:28:45;;;;;;;3.67;3.37;;;;;;;;;;4973802;28;20458;-71
2021/06/28 10:31:13;;;;;;;4.20;3.40;;;;;;;;;;4973923;28;21006;-71
2021/06/28 10:33:41;;;;;;;3.50;3.20;;;;;;;;;;4974539;28;20811;-71
2021/06/28 10:36:10;;;;;;;3.63;3.33;;;;;;;;;;4973931;28;20456;-71
2021/06/28 10:38:44;;;;;;;3.80;3.50;;;;;;;;;;4973981;28;20501;-71
2021/06/28 10:41:12;;;;;;;3.90;3.50;;;;;;;;;;4974234;28;20603;-71
2021/06/28 10:43:39;;;;;;;3.77;3.27;;;;;;;;;;4973606;28;20491;-71
2021/06/28 10:46:08;;;;;;;3.53;3.23;;;;;;;;;;4973815;28;20840;-71
2021/06/28 10:48:45;;;;;;;3.50;3.20;;;;;;;;;;4973322;28;20828;-69
2021/06/28 10:51:13;;;;;;;3.00;2.80;;;;;;;;;;4973389;28;20439;-70
2021/06/28 10:54:14;;;;;;;3.77;3.20;;;;;;;;;;4973562;28;20463;-70
2021/06/28 10:56:51;;;;;;;3.10;2.90;;;;;;;;;;4973509;28;20839;-71
2021/06/28 10:59:19;;;;;;;3.10;2.90;;;;;;;;;;4973164;28;20960;-71
2021/06/28 11:01:48;;;;;;;3.20;2.90;;;;;;;;;;4973144;28;20449;-71
2021/06/28 11:04:17;;;;;;;2.87;2.67;;;;;;;;;;4973153;28;20530;-71
2021/06/28 11:07:02;;;;;;;3.17;2.93;;;;;;;;;;4973476;28;20451;-71
2021/06/28 11:09:35;;;;;;;2.20;2.00;;;;;;;;;;4972848;28;20455;-70
2021/06/28 11:12:02;;;;;;;2.80;2.43;;;;;;;;;;4972984;28;20472;-70
2021/06/28 11:14:48;;;;;;;2.90;2.70;;;;;;;;;;4973393;28;20447;-70
2021/06/28 11:17:20;;;;;;;2.87;2.67;;;;;;;;;;4973236;28;20450;-70
2021/06/28 11:19:53;;;;;;;3.13;2.80;;;;;;;;;;4972787;28;20436;-70
2021/06/28 11:22:44;;;;;;;3.53;3.30;;;;;;;;;;4973054;28;20498;-70
2021/06/28 11:25:17;;;;;;;3.00;2.80;;;;;;;;;;4958468;28;20466;-70
2021/06/28 11:27:45;;;;;;;3.80;3.50;;;;;;;;;;4973220;28;20478;-70
2021/06/28 11:30:23;;;;;;;3.27;3.07;;;;;;;;;;4972674;28;20451;-66
2021/06/28 11:33:04;;;;;;;3.47;3.03;;;;;;;;;;4973023;28;20502;-70
2021/06/28 11:35:38;;;;;;;3.43;3.13;;;;;;;;;;4973386;28;20455;-69
2021/06/28 11:38:15;;;;;;;3.23;3.00;;;;;;;;;;4972712;28;20459;-70
2021/06/28 11:40:43;;;;;;;3.30;3.00;;;;;;;;;;4973715;28;20491;-70
2021/06/28 11:43:10;;;;;;;3.40;3.20;;;;;;;;;;4974149;28;20509;-70
2021/06/28 11:45:47;;;;;;;3.70;3.40;;;;;;;;;;4974259;28;20455;-70
2021/06/28 11:48:31;;;;;;;3.30;3.10;;;;;;;;;;4974069;28;20477;-70
2021/06/28 11:50:59;;;;;;;3.70;3.30;;;;;;;;;;4973770;28;20431;-70
2021/06/28 11:53:26;;;;;;;3.87;3.57;;;;;;;;;;4973266;28;20471;-70
2021/06/28 11:55:53;;;;;;;3.13;2.93;;;;;;;;;;4973812;28;20512;-68
2021/06/28 11:58:25;;;;;;;3.30;3.10;;;;;;;;;;4974377;28;20451;-70
2021/06/28 12:01:05;;;;;;;3.80;2.90;;;;;;;;;;4973931;28;20462;-70
2021/06/28 12:03:39;;;;;;;3.47;3.03;;;;;;;;;;4972358;28;20501;-70
2021/06/28 12:06:10;;;;;;;2.70;2.50;;;;;;;;;;4972657;28;20465;-70
2021/06/28 12:08:37;;;;;;;4.17;3.17;;;;;;;;;;4972555;28;20814;-69
2021/06/28 12:11:05;;;;;;;3.23;2.93;;;;;;;;;;4972275;28;20446;-70
2021/06/28 12:13:33;;;;;;;3.20;3.00;;;;;;;;;;4972735;28;20541;-70
2021/06/28 12:16:13;;;;;;;3.60;3.30;;;;;;;;;;4972111;28;20456;-69
2021/06/28 12:18:41;;;;;;;3.67;2.87;;;;;;;;;;4972465;28;20976;-71
2021/06/28 12:21:08;;;;;;;4.73;3.47;;;;;;;;;;4972989;28;20457;-70
2021/06/28 12:23:35;;;;;;;3.33;3.00;;;;;;;;;;4974296;28;20494;-71
2021/06/28 12:26:09;;;;;;;3.23;2.93;;;;;;;;;;4973318;28;20451;-70
2021/06/28 12:28:36;;;;;;;3.37;3.10;;;;;;;;;;4972292;28;20438;-68
2021/06/28 12:31:03;;;;;;;2.90;2.70;;;;;;;;;;4972062;28;20461;-70
2021/06/28 12:33:30;;;;;;;3.43;3.03;;;;;;;;;;4972385;28;20467;-71
2021/06/28 12:36:02;;;;;;;4.13;3.00;;;;;;;;;;4972269;28;20961;-71
2021/06/28 12:38:29;;;;;;;2.60;2.40;;;;;;;;;;4972363;28;20803;-71
2021/06/28 12:40:57;;;;;;;3.67;3.37;;;;;;;;;;4972015;28;20447;-70
2021/06/28 12:43:25;;;;;;;3.33;3.03;;;;;;;;;;4971791;28;21010;-71
2021/06/28 12:45:54;;;;;;;3.80;3.50;;;;;;;;;;4972128;28;20939;-71
2021/06/28 12:48:23;;;;;;;3.17;2.97;;;;;;;;;;4972749;28;20451;-70
2021/06/28 12:50:52;;;;;;;5.50;3.57;;;;;;;;;;4974279;28;20455;-71
2021/06/28 12:53:21;;;;;;;5.03;3.57;;;;;;;;;;4975817;28;20488;-71
2021/06/28 12:55:49;;;;;;;4.23;3.17;;;;;;;;;;4976116;28;20459;-71
2021/06/28 12:58:16;;;;;;;5.50;3.60;;;;;;;;;;4976185;28;20961;-70
2021/06/28 13:00:45;;;;;;;4.97;3.70;;;;;;;;;;4976534;28;20828;-71
2021/06/28 13:03:13;;;;;;;3.87;3.57;;;;;;;;;;4976574;28;20554;-71
2021/06/28 13:05:45;;;;;;;3.70;3.33;;;;;;;;;;4977045;28;20514;-71
2021/06/28 13:08:30;;;;;;;4.17;3.87;;;;;;;;;;4976169;28;20456;-71
2021/06/28 13:11:00;;;;;;;3.57;3.27;;;;;;;;;;4976593;28;20485;-70
2021/06/28 13:13:28;;;;;;;3.30;3.00;;;;;;;;;;4975718;28;20550;-70
2021/06/28 13:16:22;;;;;;;4.17;2.80;;;;;;;;;;4975797;28;20475;-68
2021/06/28 13:18:54;;;;;;;3.40;3.20;;;;;;;;;;4962344;28;20518;-70
2021/06/28 13:21:22;;;;;;;3.63;3.30;;;;;;;;;;4975171;28;20459;-71
2021/06/28 13:23:49;;;;;;;3.30;3.10;;;;;;;;;;4975303;28;20998;-71
2021/06/28 13:26:22;;;;;;;3.00;2.70;;;;;;;;;;4975184;28;21018;-70
2021/06/28 13:28:53;;;;;;;3.10;2.90;;;;;;;;;;4974954;28;20439;-69
2021/06/28 13:31:20;;;;;;;3.10;2.90;;;;;;;;;;4975214;28;20455;-70
2021/06/28 13:34:04;;;;;;;2.93;2.63;;;;;;;;;;4975061;28;20490;-70
2021/06/28 13:36:31;;;;;;;3.20;3.00;;;;;;;;;;4974936;28;20455;-71
2021/06/28 13:38:58;;;;;;;3.63;2.90;;;;;;;;;;4974971;28;20973;-71
2021/06/28 13:41:43;;;;;;;3.30;3.10;;;;;;;;;;4974475;28;20451;-71
2021/06/28 13:44:10;;;;;;;4.50;3.43;;;;;;;;;;4974305;28;21002;-71
2021/06/28 13:46:37;;;;;;;3.40;3.03;;;;;;;;;;4974538;28;20828;-71
2021/06/28 13:49:17;;;;;;;2.63;2.43;;;;;;;;;;4974851;28;20454;-71
2021/06/28 13:51:45;;;;;;;3.30;3.00;;;;;;;;;;4974653;28;20537;-70
2021/06/28 13:54:12;;;;;;;3.10;2.90;;;;;;;;;;4974955;28;20962;-68
2021/06/28 13:56:40;;;;;;;3.40;3.20;;;;;;;;;;4975220;28;20462;-71
2021/06/28 13:59:07;;;;;;;3.50;3.30;;;;;;;;;;4975273;28;20550;-71
2021/06/28 14:01:35;;;;;;;3.30;3.10;;;;;;;;;;4973911;28;20473;-71
2021/06/28 14:04:02;;;;;;;3.50;3.20;;;;;;;;;;4997548;23;20499;-68
2021/06/28 14:06:29;;;;;;;3.17;2.97;;;;;;;;;;4983624;28;20830;-68
2021/06/28 14:08:56;;;;;;;3.37;3.17;;;;;;;;;;4984344;28;20659;-68
2021/06/28 14:11:23;;;;;;;3.37;3.17;;;;;;;;;;4974273;28;20451;-68
2021/06/28 14:13:51;;;;;;;3.80;3.00;;;;;;;;;;4974324;28;20468;-67
2021/06/28 14:16:19;;;;;;;3.47;3.17;;;;;;;;;;4973592;28;20447;-68
2021/06/28 14:18:46;;;;;;;3.30;3.10;;;;;;;;;;4974272;28;20454;-68
2021/06/28 14:21:13;;;;;;;3.57;3.30;;;;;;;;;;4973888;28;20455;-68
2021/06/28 14:23:40;;;;;;;3.40;3.10;;;;;;;;;;4973869;28;20494;-68
2021/06/28 14:26:07;;;;;;;3.57;3.10;;;;;;;;;;4973865;28;20538;-68
2021/06/28 14:28:34;;;;;;;3.80;3.60;;;;;;;;;;4973812;28;20452;-68
2021/06/28 14:31:03;;;;;;;3.47;3.10;;;;;;;;;;4973435;28;20458;-68
2021/06/28 14:33:30;;;;;;;3.73;3.43;;;;;;;;;;4973728;28;20479;-68
2021/06/28 14:35:58;;;;;;;3.67;3.30;;;;;;;;;;4973794;28;20461;-67
2021/06/28 14:38:25;;;;;;;3.67;3.37;;;;;;;;;;4973805;28;20469;-69
2021/06/28 14:40:52;;;;;;;3.43;3.13;;;;;;;;;;4973619;28;20448;-68